Time;durP1;ratioP1;P1;durP2;ratioP2;P2;SDS_P1;SDS_P2;PMS_P1;PMS_P2;Temp;Humidity;BMP_temperature;BMP_pressure;BME280_temperature;BME280_humidity;BME280_pressure;Samples;Min_cycle;Max_cycle;Signal;HPM_P1;HPM_P2
2023/12/07 00:00:26;;;;;;;20.93;14.17;;;;;;;;;;6307983;28;20200;-63
2023/12/07 00:03:28;;;;;;;23.67;14.77;;;;;;;;;;6292731;28;20188;-63
2023/12/07 00:06:29;;;;;;;23.73;14.87;;;;;;;;;;6308956;28;20185;-63
2023/12/07 00:09:30;;;;;;;23.13;13.63;;;;;;;;;;6326178;28;20184;-63
2023/12/07 00:12:31;;;;;;;23.60;14.43;;;;;;;;;;6294310;28;20188;-63
2023/12/07 00:15:32;;;;;;;28.13;16.23;;;;;;;;;;6302161;28;20226;-63
2023/12/07 00:18:33;;;;;;;25.23;16.67;;;;;;;;;;6288679;28;20192;-63
2023/12/07 00:21:34;;;;;;;23.90;15.30;;;;;;;;;;6304369;28;20212;-63
2023/12/07 00:24:35;;;;;;;24.77;14.53;;;;;;;;;;6306211;28;20191;-63
2023/12/07 00:27:36;;;;;;;17.50;12.57;;;;;;;;;;6277073;28;20193;-63
2023/12/07 00:30:37;;;;;;;21.37;13.20;;;;;;;;;;6302087;28;20200;-63
2023/12/07 00:33:38;;;;;;;18.97;12.83;;;;;;;;;;6283936;28;20196;-63
2023/12/07 00:36:40;;;;;;;17.77;12.33;;;;;;;;;;6306318;28;20189;-63
2023/12/07 00:39:41;;;;;;;18.03;11.93;;;;;;;;;;6299238;28;20275;-63
2023/12/07 00:42:43;;;;;;;28.60;12.70;;;;;;;;;;6289741;28;20241;-63
2023/12/07 00:45:44;;;;;;;15.87;11.87;;;;;;;;;;6296985;28;20189;-64
2023/12/07 00:48:45;;;;;;;18.70;12.03;;;;;;;;;;6307703;28;20233;-63
2023/12/07 00:51:46;;;;;;;17.63;11.37;;;;;;;;;;6291660;28;20189;-63
2023/12/07 00:54:47;;;;;;;16.47;11.83;;;;;;;;;;6303008;28;20325;-63
2023/12/07 00:57:48;;;;;;;14.70;10.47;;;;;;;;;;6304977;28;20189;-63
2023/12/07 01:00:49;;;;;;;17.53;10.93;;;;;;;;;;6311905;28;20280;-63
2023/12/07 01:03:50;;;;;;;19.90;12.77;;;;;;;;;;6282867;28;20293;-64
2023/12/07 01:06:52;;;;;;;18.23;11.63;;;;;;;;;;6300305;28;20246;-63
2023/12/07 01:09:53;;;;;;;15.77;11.20;;;;;;;;;;6296053;28;20197;-63
2023/12/07 01:12:54;;;;;;;18.60;11.37;;;;;;;;;;6296163;28;20233;-63
2023/12/07 01:15:55;;;;;;;17.53;11.33;;;;;;;;;;6292092;28;20208;-63
2023/12/07 01:18:57;;;;;;;17.37;11.00;;;;;;;;;;6287321;28;20188;-63
2023/12/07 01:21:58;;;;;;;15.23;10.80;;;;;;;;;;6311273;28;20249;-63
2023/12/07 01:24:59;;;;;;;16.67;11.23;;;;;;;;;;6303264;28;20271;-63
2023/12/07 01:28:00;;;;;;;17.50;10.87;;;;;;;;;;6274700;28;20204;-63
2023/12/07 01:31:01;;;;;;;18.63;11.73;;;;;;;;;;6297054;28;20228;-63
2023/12/07 01:34:03;;;;;;;16.57;11.17;;;;;;;;;;6278071;28;20212;-63
2023/12/07 01:37:04;;;;;;;17.10;11.60;;;;;;;;;;6310692;28;20200;-63
2023/12/07 01:40:09;;;;;;;16.13;11.30;;;;;;;;;;6303051;28;20188;-63
2023/12/07 01:43:10;;;;;;;16.37;10.77;;;;;;;;;;6294400;28;20296;-63
2023/12/07 01:46:11;;;;;;;16.43;11.80;;;;;;;;;;6302648;28;20202;-63
2023/12/07 01:49:12;;;;;;;16.97;11.23;;;;;;;;;;6289816;28;20211;-63
2023/12/07 01:52:13;;;;;;;17.13;10.03;;;;;;;;;;6294171;28;20222;-63
2023/12/07 01:55:15;;;;;;;25.57;11.47;;;;;;;;;;6284005;28;20307;-63
2023/12/07 01:58:17;;;;;;;23.70;12.10;;;;;;;;;;6309783;28;20184;-64
2023/12/07 02:01:18;;;;;;;16.33;11.90;;;;;;;;;;6292155;28;20639;-63
2023/12/07 02:04:20;;;;;;;18.93;12.47;;;;;;;;;;6296680;28;20191;-63
2023/12/07 02:07:21;;;;;;;15.87;11.33;;;;;;;;;;6283669;28;20227;-63
2023/12/07 02:10:23;;;;;;;18.17;10.87;;;2.70;97.80;;;;;;6307170;28;20228;-63
2023/12/07 02:13:24;;;;;;;13.73;9.77;;;0.00;99.90;;;;;;6253986;28;20196;-63
2023/12/07 02:16:34;;;;;;;16.23;10.43;;;0.00;99.90;;;;;;6290718;28;20211;-64
2023/12/07 02:19:47;;;;;;;14.43;10.00;;;0.00;99.90;;;;;;6297774;28;20279;-64
2023/12/07 02:22:56;;;;;;;16.53;11.07;;;0.00;99.90;;;;;;6297388;28;20210;-63
2023/12/07 02:26:02;;;;;;;15.97;10.40;;;0.00;99.90;;;;;;6304341;28;20215;-63
2023/12/07 02:29:03;;;;;;;13.97;10.07;;;0.00;99.90;;;;;;6301491;28;20200;-64
2023/12/07 02:32:04;;;;;;;16.87;11.80;;;0.00;99.90;;;;;;6285445;28;20193;-63
2023/12/07 02:35:07;;;;;;;20.73;9.90;;;0.00;99.90;;;;;;6293146;28;20220;-63
2023/12/07 02:38:08;;;;;;;85.50;13.90;;;0.00;99.90;;;;;;6290680;28;20193;-63
2023/12/07 02:41:11;;;;;;;58.67;11.80;;;-0.10;99.90;;;;;;6277859;28;20220;-63
2023/12/07 02:44:11;;;;;;;26.10;10.53;;;-0.10;99.90;;;;;;6290649;28;20238;-62
2023/12/07 02:47:12;;;;;;;16.00;11.03;;;-0.10;99.90;;;;;;6286796;28;20233;-63
2023/12/07 02:50:13;;;;;;;15.83;8.80;;;-0.10;99.90;;;;;;6287128;28;20196;-63
2023/12/07 02:53:14;;;;;;;16.70;10.60;;;-0.10;99.90;;;;;;6272441;28;20211;-63
2023/12/07 02:56:14;;;;;;;12.77;8.87;;;-0.10;99.90;;;;;;6290088;28;20205;-63
2023/12/07 02:59:15;;;;;;;13.70;8.47;;;-0.10;99.90;;;;;;6269191;28;20184;-63
2023/12/07 03:02:16;;;;;;;15.23;10.13;;;-0.10;99.90;;;;;;6279414;28;20181;-63
2023/12/07 03:05:17;;;;;;;17.53;9.60;;;-0.10;99.90;;;;;;6287074;28;20185;-63
2023/12/07 03:08:18;;;;;;;12.80;9.20;;;-0.10;99.90;;;;;;6282454;28;20191;-63
2023/12/07 03:11:18;;;;;;;13.23;8.90;;;-0.10;99.90;;;;;;6271401;28;20278;-64
2023/12/07 03:14:19;;;;;;;13.00;8.77;;;-0.10;99.90;;;;;;6286381;28;20216;-63
2023/12/07 03:17:20;;;;;;;12.27;8.63;;;-0.10;99.90;;;;;;6276714;28;20216;-63
2023/12/07 03:20:21;;;;;;;12.70;8.53;;;-0.20;99.90;;;;;;6280800;28;20186;-63
2023/12/07 03:23:21;;;;;;;14.30;9.13;;;-0.20;99.90;;;;;;6270069;28;20191;-63
2023/12/07 03:26:22;;;;;;;12.70;8.83;;;-0.20;99.90;;;;;;6275102;28;20219;-63
2023/12/07 03:29:23;;;;;;;11.90;8.83;;;-0.20;99.90;;;;;;6281071;28;20291;-63
2023/12/07 03:32:23;;;;;;;12.23;8.90;;;-0.30;99.90;;;;;;6274047;28;20214;-63
2023/12/07 03:35:24;;;;;;;13.23;8.53;;;-0.30;99.90;;;;;;6290631;28;20307;-62
2023/12/07 03:38:25;;;;;;;12.10;7.87;;;-0.40;99.90;;;;;;6274148;28;20181;-63
2023/12/07 03:41:25;;;;;;;13.00;9.10;;;-0.40;99.90;;;;;;6288738;28;20215;-63
2023/12/07 03:44:28;;;;;;;13.17;9.10;;;-0.40;99.90;;;;;;6271102;28;20240;-63
2023/12/07 03:47:29;;;;;;;13.23;8.50;;;-0.60;99.90;;;;;;6271927;28;20189;-63
2023/12/07 03:50:31;;;;;;;11.97;8.00;;;-0.50;99.90;;;;;;6267826;28;20217;-63
2023/12/07 03:53:32;;;;;;;12.97;8.73;;;-0.60;99.90;;;;;;6264906;28;20204;-63
2023/12/07 03:56:33;;;;;;;11.70;8.20;;;-0.60;99.90;;;;;;6289180;28;20221;-63
2023/12/07 03:59:36;;;;;;;13.43;8.80;;;-0.60;99.90;;;;;;6287739;28;20279;-63
2023/12/07 04:02:37;;;;;;;12.53;8.70;;;-0.60;99.90;;;;;;6303681;28;20180;-63
2023/12/07 04:05:38;;;;;;;11.63;9.07;;;-0.60;99.90;;;;;;6269245;28;20188;-63
2023/12/07 04:08:38;;;;;;;12.23;8.33;;;-0.70;99.90;;;;;;6276230;28;20193;-64
2023/12/07 04:11:39;;;;;;;10.60;8.10;;;-0.70;99.90;;;;;;6274568;28;20200;-62
2023/12/07 04:14:40;;;;;;;14.93;8.77;;;-0.70;99.90;;;;;;6271088;28;20220;-63
2023/12/07 04:17:40;;;;;;;11.07;8.30;;;-0.70;99.90;;;;;;6256731;28;20195;-63
2023/12/07 04:20:41;;;;;;;11.27;7.73;;;-0.70;99.90;;;;;;6252619;28;20214;-63
2023/12/07 04:23:42;;;;;;;9.90;7.47;;;-0.70;99.90;;;;;;6272991;28;20193;-63
2023/12/07 04:26:42;;;;;;;12.07;8.07;;;-0.70;99.90;;;;;;6272433;28;20196;-64
2023/12/07 04:29:43;;;;;;;12.50;8.30;;;-0.70;99.90;;;;;;6266964;28;20192;-63
2023/12/07 04:32:44;;;;;;;12.77;8.10;;;-0.70;99.90;;;;;;6262094;28;20187;-63
2023/12/07 04:35:44;;;;;;;13.43;8.80;;;-0.60;99.90;;;;;;6268109;28;20222;-63
2023/12/07 04:38:45;;;;;;;9.90;7.50;;;-0.60;99.90;;;;;;6265286;28;20181;-63
2023/12/07 04:41:46;;;;;;;10.87;7.90;;;-0.70;99.90;;;;;;6272477;28;20181;-62
2023/12/07 04:44:46;;;;;;;9.53;6.70;;;-0.70;99.90;;;;;;6269869;28;20327;-62
2023/12/07 04:47:47;;;;;;;11.87;7.80;;;-0.60;99.90;;;;;;6264344;28;20198;-63
2023/12/07 04:50:48;;;;;;;10.03;7.50;;;-0.60;99.90;;;;;;6281405;28;20191;-65
2023/12/07 04:53:48;;;;;;;8.23;7.00;;;-0.60;99.90;;;;;;6292272;28;20188;-64
2023/12/07 04:56:49;;;;;;;7.87;5.97;;;-0.70;99.90;;;;;;6282586;28;20185;-65
2023/12/07 04:59:50;;;;;;;11.97;7.93;;;-0.60;99.90;;;;;;6289437;28;20181;-65
2023/12/07 05:02:51;;;;;;;10.03;6.87;;;-0.60;99.90;;;;;;6285211;28;20177;-65
2023/12/07 05:05:51;;;;;;;9.83;7.23;;;-0.60;99.90;;;;;;6289844;28;20208;-65
2023/12/07 05:08:52;;;;;;;9.37;6.53;;;-0.70;99.90;;;;;;6298736;28;20196;-65
2023/12/07 05:11:53;;;;;;;9.43;6.80;;;-0.70;99.90;;;;;;6270214;28;20197;-65
2023/12/07 05:14:53;;;;;;;9.50;7.23;;;-0.70;99.90;;;;;;6284879;28;20221;-65
2023/12/07 05:17:54;;;;;;;10.27;7.50;;;-0.70;99.90;;;;;;6256003;28;20186;-67
2023/12/07 05:20:55;;;;;;;10.57;7.60;;;-0.70;99.90;;;;;;6270512;28;20187;-64
2023/12/07 05:23:55;;;;;;;10.47;6.77;;;-0.70;99.90;;;;;;6251273;28;20191;-64
2023/12/07 05:26:57;;;;;;;11.17;7.40;;;-0.70;99.90;;;;;;6273405;28;20188;-64
2023/12/07 05:29:57;;;;;;;9.07;6.57;;;-0.60;99.90;;;;;;6276121;28;20194;-65
2023/12/07 05:32:58;;;;;;;9.10;6.47;;;-0.70;99.90;;;;;;6264276;28;20196;-65
2023/12/07 05:36:00;;;;;;;9.30;6.97;;;-0.70;99.90;;;;;;6274574;28;20285;-65
2023/12/07 05:39:01;;;;;;;9.23;7.23;;;-0.60;99.90;;;;;;6306610;28;20211;-65
2023/12/07 05:42:04;;;;;;;11.17;7.10;;;-0.70;99.90;;;;;;6271966;28;20185;-64
2023/12/07 05:45:06;;;;;;;11.10;7.27;;;-0.60;99.90;;;;;;6292730;28;20205;-64
2023/12/07 05:48:07;;;;;;;12.17;8.03;;;-0.60;99.90;;;;;;6251651;28;20184;-65
2023/12/07 05:51:15;;;;;;;9.93;7.40;;;-0.60;99.90;;;;;;6258495;28;20192;-65
2023/12/07 05:54:16;;;;;;;12.17;8.00;;;-0.60;99.90;;;;;;6289896;28;20338;-64
2023/12/07 05:57:17;;;;;;;11.23;8.03;;;-0.60;99.90;;;;;;6271155;28;20185;-64
2023/12/07 06:00:18;;;;;;;10.90;7.87;;;-0.60;99.90;;;;;;6272903;28;20188;-64
2023/12/07 06:03:19;;;;;;;10.80;7.53;;;-0.50;99.90;;;;;;6255729;28;20220;-66
2023/12/07 06:06:21;;;;;;;12.57;7.70;;;-0.60;99.90;;;;;;6270418;28;20199;-65
2023/12/07 06:09:22;;;;;;;10.33;7.47;;;-0.60;99.90;;;;;;6278939;28;20193;-65
2023/12/07 06:12:23;;;;;;;10.30;7.20;;;-0.60;99.90;;;;;;6312045;28;20203;-65
2023/12/07 06:15:27;;;;;;;11.43;7.43;;;-0.60;99.90;;;;;;6310178;28;20215;-65
2023/12/07 06:18:27;;;;;;;10.27;6.53;;;-0.60;99.90;;;;;;6286289;28;20177;-64
2023/12/07 06:21:29;;;;;;;12.57;7.57;;;-0.60;99.90;;;;;;6258220;28;20187;-64
2023/12/07 06:24:30;;;;;;;9.87;6.70;;;-0.60;99.90;;;;;;6268017;28;20185;-65
2023/12/07 06:27:31;;;;;;;10.40;7.37;;;-0.60;99.90;;;;;;6283449;28;20184;-64
2023/12/07 06:30:32;;;;;;;9.00;6.73;;;-0.60;99.90;;;;;;6278624;28;20224;-64
2023/12/07 06:33:34;;;;;;;10.63;7.37;;;-0.70;99.80;;;;;;6268160;28;20192;-64
2023/12/07 06:36:35;;;;;;;14.17;8.10;;;-0.70;99.90;;;;;;6280054;28;20218;-64
2023/12/07 06:39:37;;;;;;;10.93;7.50;;;-0.70;99.90;;;;;;6266341;28;20196;-65
2023/12/07 06:42:38;;;;;;;11.23;7.47;;;-0.70;99.50;;;;;;6269967;28;20307;-65
2023/12/07 06:45:38;;;;;;;11.43;7.60;;;-0.70;99.90;;;;;;6262688;28;20212;-65
2023/12/07 06:48:41;;;;;;;8.77;6.37;;;-0.70;99.90;;;;;;6268720;28;20233;-65
2023/12/07 06:51:41;;;;;;;8.53;5.47;;;-0.70;99.90;;;;;;6292531;28;20193;-65
2023/12/07 06:54:42;;;;;;;6.63;4.60;;;-0.70;99.90;;;;;;6257507;28;20208;-65
2023/12/07 06:57:43;;;;;;;9.63;5.00;;;-0.70;99.90;;;;;;6264523;28;20176;-65
2023/12/07 07:00:43;;;;;;;10.53;6.50;;;-0.80;99.90;;;;;;6268182;28;20183;-65
2023/12/07 07:03:44;;;;;;;9.00;6.10;;;;;;;;;;6281638;28;20195;-65
2023/12/07 07:06:45;;;;;;;10.23;6.10;;;-0.80;99.90;;;;;;6272200;28;20180;-64
2023/12/07 07:09:46;;;;;;;6.87;4.60;;;-0.90;99.70;;;;;;6255847;28;20184;-65
2023/12/07 07:12:46;;;;;;;8.27;5.30;;;-0.90;99.90;;;;;;6268208;28;20180;-65
2023/12/07 07:15:48;;;;;;;10.73;6.37;;;-0.90;99.90;;;;;;6273604;28;20219;-65
2023/12/07 07:18:48;;;;;;;8.93;5.57;;;-0.90;99.90;;;;;;6285300;28;20191;-65
2023/12/07 07:21:49;;;;;;;8.90;6.03;;;-0.90;99.90;;;;;;6265826;28;20184;-65
2023/12/07 07:24:50;;;;;;;6.23;4.93;;;-0.90;99.80;;;;;;6285077;28;20276;-65
2023/12/07 07:27:52;;;;;;;10.03;5.33;;;-0.90;99.90;;;;;;6261775;28;20228;-65
2023/12/07 07:30:53;;;;;;;10.30;6.37;;;-0.90;99.60;;;;;;6276471;28;20189;-65
2023/12/07 07:33:53;;;;;;;8.37;5.73;;;-1.00;99.90;;;;;;6270343;28;20192;-65
2023/12/07 07:36:54;;;;;;;10.83;7.07;;;-0.90;99.90;;;;;;6259943;28;20318;-65
2023/12/07 07:39:55;;;;;;;7.37;5.80;;;-0.90;99.70;;;;;;6268332;28;20194;-65
2023/12/07 07:42:56;;;;;;;9.03;6.70;;;-0.90;99.90;;;;;;6287713;28;20342;-65
2023/12/07 07:45:56;;;;;;;10.93;5.90;;;-0.90;99.70;;;;;;6272059;28;20288;-65
2023/12/07 07:48:57;;;;;;;9.90;6.63;;;-0.90;99.90;;;;;;6265527;28;20200;-65
2023/12/07 07:51:58;;;;;;;8.33;6.03;;;-0.90;99.90;;;;;;6278302;28;20197;-65
2023/12/07 07:55:05;;;;;;;9.27;6.07;;;-0.90;99.90;;;;;;6261851;28;20573;-65
2023/12/07 07:58:06;;;;;;;9.33;7.03;;;-0.90;99.70;;;;;;6272129;28;20327;-65
2023/12/07 08:01:07;;;;;;;10.07;8.03;;;;;;;;;;6269448;28;20188;-65
2023/12/07 08:04:10;;;;;;;12.33;7.73;;;-0.90;99.40;;;;;;6289775;28;20252;-65
2023/12/07 08:07:11;;;;;;;10.40;8.27;;;-0.80;99.70;;;;;;6280549;28;20197;-65
2023/12/07 08:10:11;;;;;;;11.20;7.83;;;-0.70;99.90;;;;;;6262128;28;20196;-65
2023/12/07 08:13:12;;;;;;;12.40;7.90;;;-0.70;99.90;;;;;;6251598;28;20200;-65
2023/12/07 08:16:13;;;;;;;10.47;7.30;;;-0.70;99.90;;;;;;6253334;28;20221;-65
2023/12/07 08:19:13;;;;;;;9.03;7.37;;;-0.70;99.60;;;;;;6264951;28;20197;-65
2023/12/07 08:22:15;;;;;;;10.07;6.93;;;-0.70;99.90;;;;;;6265173;28;20192;-65
2023/12/07 08:25:17;;;;;;;11.50;7.53;;;-0.70;99.90;;;;;;6285278;28;20199;-65
2023/12/07 08:28:18;;;;;;;14.37;8.60;;;-0.70;99.90;;;;;;6265087;28;20279;-65
2023/12/07 08:31:19;;;;;;;12.50;7.37;;;-0.60;99.90;;;;;;6275611;28;20216;-65
2023/12/07 08:34:20;;;;;;;11.63;6.37;;;-0.60;99.90;;;;;;6264397;28;20224;-65
2023/12/07 08:37:21;;;;;;;9.17;6.63;;;-0.60;99.90;;;;;;6275872;28;20198;-65
2023/12/07 08:40:21;;;;;;;12.70;7.03;;;-0.50;99.90;;;;;;6274341;28;20189;-65
2023/12/07 08:43:25;;;;;;;8.30;6.63;;;-0.50;99.90;;;;;;6293310;28;20275;-65
2023/12/07 08:46:26;;;;;;;11.27;8.20;;;-0.50;99.90;;;;;;6270544;28;20215;-65
2023/12/07 08:49:26;;;;;;;13.07;8.60;;;-0.50;99.90;;;;;;6268728;28;20191;-65
2023/12/07 08:52:27;;;;;;;13.97;9.93;;;-0.50;99.90;;;;;;6269489;28;20215;-65
2023/12/07 08:55:29;;;;;;;11.40;9.77;;;-0.40;99.90;;;;;;6303710;28;20273;-65
2023/12/07 08:58:30;;;;;;;14.30;10.07;;;-0.40;99.90;;;;;;6263902;28;20276;-65
2023/12/07 09:01:33;;;;;;;11.03;9.00;;;-0.40;99.90;;;;;;6268747;28;20188;-65
2023/12/07 09:04:33;;;;;;;10.87;8.63;;;-0.30;99.90;;;;;;6276062;28;20636;-65
2023/12/07 09:07:34;;;;;;;10.00;8.77;;;-0.30;99.90;;;;;;6260136;28;20204;-65
2023/12/07 09:10:34;;;;;;;14.23;9.63;;;-0.20;99.90;;;;;;6278722;28;20196;-65
2023/12/07 09:13:37;;;;;;;14.23;10.53;;;-0.20;99.90;;;;;;6287505;28;20189;-65
2023/12/07 09:16:44;;;;;;;12.00;9.00;;;-0.20;99.90;;;;;;6295299;28;20212;-65
2023/12/07 09:19:45;;;;;;;10.97;8.90;;;-0.10;99.90;;;;;;6287964;28;20250;-65
2023/12/07 09:22:46;;;;;;;13.20;10.20;;;-0.10;99.90;;;;;;6269804;28;20192;-65
2023/12/07 09:25:47;;;;;;;11.83;9.50;;;-0.10;99.90;;;;;;6280850;28;20311;-65
2023/12/07 09:28:48;;;;;;;10.90;8.63;;;0.00;99.90;;;;;;6266361;28;20192;-65
2023/12/07 09:31:49;;;;;;;9.80;8.80;;;0.00;99.90;;;;;;6271274;28;20283;-65
2023/12/07 09:34:51;;;;;;;10.50;8.50;;;0.00;99.90;;;;;;6268146;28;20212;-65
2023/12/07 09:37:51;;;;;;;9.23;7.33;;;0.00;99.90;;;;;;6283381;28;20203;-65
2023/12/07 09:40:53;;;;;;;8.87;7.30;;;0.00;99.90;;;;;;6288297;28;20188;-65
2023/12/07 09:43:55;;;;;;;7.73;6.90;;;0.00;99.90;;;;;;6297116;28;20314;-65
2023/12/07 09:46:55;;;;;;;9.13;7.63;;;0.00;99.90;;;;;;6262400;28;20192;-65
2023/12/07 09:49:57;;;;;;;8.23;7.17;;;0.10;99.90;;;;;;6262451;28;20192;-65
2023/12/07 09:52:58;;;;;;;8.63;6.80;;;0.20;99.90;;;;;;6273804;28;20200;-65
2023/12/07 09:55:59;;;;;;;7.90;6.63;;;0.20;99.90;;;;;;6276905;28;20280;-65
2023/12/07 09:59:00;;;;;;;8.43;6.60;;;0.20;99.90;;;;;;6289772;28;20196;-65
2023/12/07 10:02:01;;;;;;;7.17;6.47;;;0.30;99.90;;;;;;6265971;28;20195;-65
2023/12/07 10:05:06;;;;;;;7.27;6.20;;;0.30;99.90;;;;;;6283129;28;20254;-65
2023/12/07 10:08:24;;;;;;;10.17;6.70;;;0.30;99.90;;;;;;6281737;28;20321;-65
2023/12/07 10:11:25;;;;;;;8.63;5.73;;;0.40;99.90;;;;;;6318649;28;20254;-65
2023/12/07 10:14:27;;;;;;;7.57;6.20;;;0.40;99.90;;;;;;6275016;28;20220;-65
2023/12/07 10:17:46;;;;;;;7.77;6.33;;;0.50;99.90;;;;;;6294623;28;20206;-65
2023/12/07 10:20:47;;;;;;;8.00;6.20;;;0.60;99.90;;;;;;6302065;28;20240;-65
2023/12/07 10:23:48;;;;;;;7.60;5.47;;;0.60;99.90;;;;;;6265182;28;20185;-65
2023/12/07 10:26:50;;;;;;;6.07;5.03;;;0.70;99.90;;;;;;6280885;28;20211;-65
2023/12/07 10:29:51;;;;;;;4.90;4.40;;;0.80;99.90;;;;;;6278526;28;20193;-65
2023/12/07 10:32:52;;;;;;;5.73;4.47;;;1.00;99.60;;;;;;6264960;28;20188;-65
2023/12/07 10:35:53;;;;;;;3.33;2.73;;;1.00;99.80;;;;;;6273022;28;20213;-65
2023/12/07 10:38:54;;;;;;;3.27;2.80;;;1.00;95.10;;;;;;6273017;28;20197;-65
2023/12/07 10:42:01;;;;;;;4.53;3.07;;;1.20;93.30;;;;;;6316919;28;20287;-65
2023/12/07 10:45:04;;;;;;;4.00;2.33;;;;;;;;;;6288647;28;20261;-65
2023/12/07 10:48:06;;;;;;;2.77;2.47;;;;;;;;;;6306476;28;20189;-65
2023/12/07 10:51:09;;;;;;;3.57;2.83;;;;;;;;;;6302261;28;20188;-65
2023/12/07 10:54:11;;;;;;;3.17;2.33;;;;;;;;;;6282188;28;20185;-65
2023/12/07 10:57:13;;;;;;;2.50;2.27;;;;;;;;;;6298391;28;20188;-65
2023/12/07 11:00:15;;;;;;;3.00;2.40;;;;;;;;;;6300136;28;20182;-65
2023/12/07 11:03:20;;;;;;;3.37;2.67;;;;;;;;;;6291284;28;20234;-65
2023/12/07 11:06:21;;;;;;;2.77;2.03;;;1.30;93.20;;;;;;6320910;28;20283;-65
2023/12/07 11:09:28;;;;;;;2.10;1.90;;;2.00;86.70;;;;;;6266103;28;20219;-65
2023/12/07 11:12:34;;;;;;;2.90;2.60;;;;;;;;;;6303247;28;20196;-65
2023/12/07 11:15:35;;;;;;;2.77;2.00;;;;;;;;;;6312632;28;20236;-65
2023/12/07 11:18:37;;;;;;;2.57;2.10;;;;;;;;;;6304842;28;20180;-65
2023/12/07 11:21:38;;;;;;;2.40;2.20;;;;;;;;;;6289396;28;20209;-65
2023/12/07 11:24:52;;;;;;;2.33;2.13;;;;;;;;;;6275917;28;20216;-65
2023/12/07 11:28:03;;;;;;;3.13;1.90;;;;;;;;;;6304246;28;20214;-65
2023/12/07 11:31:04;;;;;;;2.80;2.50;;;;;;;;;;6282666;28;20201;-65
2023/12/07 11:34:13;;;;;;;2.30;2.00;;;;;;;;;;6283284;28;20197;-65
2023/12/07 11:37:17;;;;;;;1.97;1.70;;;;;;;;;;6295792;28;20200;-65
2023/12/07 11:40:18;;;;;;;2.63;2.07;;;;;;;;;;6289009;28;20220;-65
2023/12/07 11:43:41;;;;;;;2.80;2.50;;;;;;;;;;6299953;28;20232;-65
2023/12/07 11:46:42;;;;;;;2.60;2.33;;;;;;;;;;6304923;28;20220;-65
2023/12/07 11:49:43;;;;;;;1.43;1.33;;;;;;;;;;6283839;28;20192;-65
2023/12/07 11:52:46;;;;;;;1.80;1.70;;;;;;;;;;6289391;28;20197;-65
2023/12/07 11:55:47;;;;;;;2.13;1.93;;;;;;;;;;6293495;28;20203;-65
2023/12/07 11:58:49;;;;;;;2.17;1.97;;;;;;;;;;6292950;28;20188;-65
2023/12/07 12:01:50;;;;;;;1.90;1.80;;;;;;;;;;6323220;28;20187;-65
2023/12/07 12:04:51;;;;;;;2.23;2.03;;;;;;;;;;6284234;28;20231;-65
2023/12/07 12:07:52;;;;;;;3.17;2.23;;;;;;;;;;6276763;28;20207;-64
2023/12/07 12:10:57;;;;;;;1.87;1.70;;;;;;;;;;6310545;28;20271;-64
2023/12/07 12:13:58;;;;;;;3.13;1.90;;;;;;;;;;6311840;28;20193;-63
2023/12/07 12:16:59;;;;;;;2.47;2.10;;;;;;;;;;6307030;28;20290;-63
2023/12/07 12:20:00;;;;;;;2.00;1.70;;;;;;;;;;6289281;28;20192;-63
2023/12/07 12:23:01;;;;;;;3.77;2.67;;;;;;;;;;6281810;28;20250;-63
2023/12/07 12:26:02;;;;;;;2.00;1.80;;;;;;;;;;6303382;28;20188;-63
2023/12/07 12:29:03;;;;;;;2.60;1.93;;;;;;;;;;6305477;28;20189;-63
2023/12/07 12:32:05;;;;;;;1.73;1.47;;;;;;;;;;6279720;28;20234;-63
2023/12/07 12:35:06;;;;;;;1.53;1.43;;;;;;;;;;6280374;28;20212;-63
2023/12/07 12:38:11;;;;;;;1.67;1.57;;;;;;;;;;6286621;28;20191;-63
2023/12/07 12:41:13;;;;;;;3.17;1.67;;;;;;;;;;6292139;28;20192;-63
2023/12/07 12:44:14;;;;;;;2.80;1.87;;;;;;;;;;6292721;28;20224;-63
2023/12/07 12:47:15;;;;;;;3.53;1.90;;;;;;;;;;6275754;28;20197;-63
2023/12/07 12:50:36;;;;;;;2.50;1.87;;;;;;;;;;6280906;28;20198;-63
2023/12/07 12:53:41;;;;;;;1.87;1.77;;;;;;;;;;6322422;28;20646;-63
2023/12/07 12:56:43;;;;;;;2.03;1.67;;;;;;;;;;6301248;28;20209;-63
2023/12/07 12:59:48;;;;;;;1.60;1.50;;;;;;;;;;6271691;28;20238;-63
2023/12/07 13:02:49;;;;;;;2.97;2.07;;;;;;;;;;6270183;28;20189;-63
2023/12/07 13:05:50;;;;;;;1.73;1.57;;;;;;;;;;6275549;28;20219;-63
2023/12/07 13:08:51;;;;;;;2.30;1.90;;;;;;;;;;6311456;28;20279;-63
2023/12/07 13:11:52;;;;;;;1.73;1.63;;;;;;;;;;6306006;28;20199;-63
2023/12/07 13:14:53;;;;;;;2.27;1.87;;;;;;;;;;6295814;28;20220;-63
2023/12/07 13:17:54;;;;;;;1.90;1.70;;;;;;;;;;6299580;28;20192;-64
2023/12/07 13:20:55;;;;;;;2.07;1.63;;;2.30;79.70;;;;;;6287872;28;20288;-63
2023/12/07 13:23:56;;;;;;;2.07;1.50;;;4.90;61.20;;;;;;6268813;28;20197;-63
2023/12/07 13:27:00;;;;;;;3.07;2.30;;;4.90;60.00;;;;;;6283890;28;20257;-63
2023/12/07 13:30:05;;;;;;;2.73;1.90;;;4.90;61.40;;;;;;6316816;28;20252;-63
2023/12/07 13:33:06;;;;;;;1.90;1.60;;;4.90;63.80;;;;;;6275424;28;20200;-63
2023/12/07 13:36:07;;;;;;;2.00;1.80;;;4.90;65.60;;;;;;6278067;28;20349;-63
2023/12/07 13:39:09;;;;;;;2.77;1.87;;;5.00;62.10;;;;;;6268681;28;20192;-63
2023/12/07 13:42:09;;;;;;;3.17;1.80;;;5.00;63.20;;;;;;6292371;28;20203;-63
2023/12/07 13:45:11;;;;;;;2.50;2.10;;;5.00;66.90;;;;;;6263996;28;20200;-63
2023/12/07 13:48:12;;;;;;;3.20;1.80;;;5.00;61.10;;;;;;6299032;28;20207;-63
2023/12/07 13:51:13;;;;;;;4.03;2.40;;;4.90;61.60;;;;;;6301032;28;20189;-63
2023/12/07 13:54:13;;;;;;;1.83;1.60;;;5.00;64.70;;;;;;6280849;28;20222;-63
2023/12/07 13:57:14;;;;;;;2.73;2.00;;;5.00;65.00;;;;;;6299522;28;20180;-63
2023/12/07 14:00:15;;;;;;;1.80;1.70;;;5.00;61.50;;;;;;6297827;28;20209;-63
2023/12/07 14:03:16;;;;;;;1.93;1.80;;;5.00;61.40;;;;;;6270488;28;20192;-63
2023/12/07 14:06:24;;;;;;;2.10;1.90;;;5.00;58.90;;;;;;6272048;28;20221;-63
2023/12/07 14:09:24;;;;;;;2.13;1.73;;;5.00;64.90;;;;;;6273069;28;20197;-63
2023/12/07 14:12:26;;;;;;;2.27;2.07;;;5.00;63.80;;;;;;6276589;28;20211;-63
2023/12/07 14:15:27;;;;;;;3.97;2.13;;;4.90;63.20;;;;;;6300245;28;20283;-63
2023/12/07 14:18:28;;;;;;;2.70;2.10;;;4.80;63.20;;;;;;6273590;28;20198;-63
2023/12/07 14:21:29;;;;;;;2.30;2.00;;;4.80;65.00;;;;;;6263764;28;20189;-63
2023/12/07 14:24:33;;;;;;;2.20;1.87;;;4.70;65.00;;;;;;6266400;28;20199;-63
2023/12/07 14:27:33;;;;;;;2.73;2.40;;;4.70;64.10;;;;;;6290319;28;20219;-63
2023/12/07 14:30:36;;;;;;;3.97;2.27;;;4.50;64.90;;;;;;6277430;28;20188;-63
2023/12/07 14:33:36;;;;;;;3.20;2.00;;;4.50;69.40;;;;;;6280011;28;20225;-63
2023/12/07 14:36:44;;;;;;;1.70;1.60;;;4.50;64.00;;;;;;6274362;28;20230;-63
2023/12/07 14:39:44;;;;;;;4.00;1.93;;;4.40;68.20;;;;;;6287270;28;20190;-63
2023/12/07 14:42:45;;;;;;;3.80;3.40;;;4.30;63.50;;;;;;6269690;28;20224;-63
2023/12/07 14:45:46;;;;;;;3.37;2.63;;;4.20;64.50;;;;;;6271761;28;20197;-65
2023/12/07 14:48:46;;;;;;;3.87;3.30;;;4.10;71.40;;;;;;6285559;28;20196;-65
2023/12/07 14:51:48;;;;;;;4.90;2.50;;;4.00;71.80;;;;;;6279891;28;20185;-65
2023/12/07 14:54:48;;;;;;;2.93;2.50;;;3.90;74.30;;;;;;6280348;28;20235;-63
2023/12/07 14:57:50;;;;;;;2.80;2.40;;;3.70;72.50;;;;;;6259612;28;20180;-63
2023/12/07 15:00:52;;;;;;;2.87;2.10;;;3.60;75.70;;;;;;6276392;28;20181;-63
2023/12/07 15:03:52;;;;;;;3.00;2.57;;;3.40;75.20;;;;;;6301336;28;20189;-63
2023/12/07 15:06:54;;;;;;;3.30;2.60;;;3.30;75.60;;;;;;6264690;28;20192;-63
2023/12/07 15:09:55;;;;;;;3.47;2.37;;;3.10;79.30;;;;;;6268627;28;20283;-63
2023/12/07 15:12:56;;;;;;;3.20;2.37;;;3.00;79.80;;;;;;6278215;28;20217;-63
2023/12/07 15:15:56;;;;;;;3.10;2.80;;;2.90;81.80;;;;;;6269269;28;20212;-63
2023/12/07 15:18:58;;;;;;;3.20;2.40;;;;;;;;;;6278003;28;20184;-63
2023/12/07 15:21:58;;;;;;;2.90;2.60;;;2.80;82.70;;;;;;6285400;28;20200;-63
2023/12/07 15:24:59;;;;;;;2.53;2.33;;;2.50;82.20;;;;;;6268421;28;20196;-63
2023/12/07 15:28:00;;;;;;;2.80;2.60;;;2.40;80.30;;;;;;6274065;28;20194;-63
2023/12/07 15:31:00;;;;;;;3.07;2.60;;;2.30;81.70;;;;;;6272506;28;20199;-63
2023/12/07 15:34:01;;;;;;;3.47;2.73;;;2.20;82.60;;;;;;6277323;28;20199;-63
2023/12/07 15:37:02;;;;;;;2.70;2.50;;;2.10;83.50;;;;;;6286715;28;20219;-63
2023/12/07 15:40:04;;;;;;;2.87;2.50;;;2.00;83.50;;;;;;6275690;28;20199;-63
2023/12/07 15:43:04;;;;;;;3.93;2.90;;;1.90;81.90;;;;;;6274950;28;20230;-63
2023/12/07 15:46:07;;;;;;;3.37;2.80;;;1.80;83.20;;;;;;6260836;28;20204;-63
2023/12/07 15:49:08;;;;;;;4.83;2.50;;;1.70;84.00;;;;;;6266070;28;20190;-63
2023/12/07 15:52:08;;;;;;;3.70;2.80;;;1.60;84.70;;;;;;6258142;28;20212;-63
2023/12/07 15:55:09;;;;;;;3.03;2.30;;;1.50;85.30;;;;;;6259230;28;20213;-63
2023/12/07 15:58:11;;;;;;;3.23;2.23;;;;;;;;;;6267265;28;20190;-63
2023/12/07 16:01:12;;;;;;;3.63;2.70;;;;;;;;;;6247772;28;20193;-63
2023/12/07 16:04:15;;;;;;;3.60;2.90;;;;;;;;;;6245829;28;20195;-63
2023/12/07 16:07:16;;;;;;;3.40;2.30;;;;;;;;;;6268103;28;20215;-63
2023/12/07 16:10:17;;;;;;;5.20;2.90;;;;;;;;;;6248663;28;20312;-64
2023/12/07 16:13:18;;;;;;;3.03;2.70;;;;;;;;;;6254732;28;20216;-63
2023/12/07 16:16:19;;;;;;;3.17;2.87;;;;;;;;;;6252444;28;20246;-65
2023/12/07 16:19:20;;;;;;;3.43;2.70;;;;;;;;;;6281936;28;20280;-64
2023/12/07 16:22:21;;;;;;;5.07;3.03;;;;;;;;;;6254318;28;20217;-62